Macomb, IL

9:01 AM CDT on July 06, 2015 (GMT -0500)
WIU Harry Mussatto Golf Course | | Change Station
CLOSE
Current Station
Personal Weather Station
Location: Macomb, IL
Elevation: 712 ft
Nearby Weather Stations

Elev 712 ft 40.48 °N, 90.69 °W | Updated 6 minutes ago

Partly Cloudy
Partly Cloudy
75.6 °F
Feels Like 75 °F
N
10.0
Wind Variable Wind from SW
Gusts 12.0 mph

Today
High -- | Low -- °F
--% Chance of Precip.
Yesterday
High -- | Low -- °F
Precip. -- in
5:38 AM 8:35 PM
Waning Gibbous, 75% visible
Pressure 29.98 in
Visibility 7.0 miles
Clouds Clear
Heat Index 75 °F
Dew Point 72 °F
Humidity 89%
Rainfall 0.00 in
Snow Depth Not available.
UV 4 out of 12
Pollen 4.20 out of 12
Air Quality Not available.
Flu Activity Not available.
METAR KMQB 061355Z AUTO 20006KT 170V240 7SM CLR 24/22 A2998 RMK AO2 T02410220

More Conditions Fewer Conditions

Pressure 29.98 in
Visibility 7.0 miles
Clouds Clear
Heat Index 75 °F
Dew Point 72 °F
Humidity 89%
Rainfall 0.00 in
Snow Depth Not available.
UV 4 out of 12
Pollen 4.20 out of 12
Air Quality Not available.
Flu Activity Not available.
METAR KMQB 061355Z AUTO 20006KT 170V240 7SM CLR 24/22 A2998 RMK AO2 T02410220

More Conditions Fewer Conditions

10-Day Weather Forecast

×

Almanac

Astronomy

Jul. 06, 2015 Rise Set
Actual Time
Civil Twilight
Nautical Twilight
Astronomical Twilight
Moon
Length of Visible Light
Length of Day
Tomorrow will be .
, % of the Moon is Illuminated

Today's Extremes

State Highs State Lows

Community

WunderPhotos

Upload Photos

1,835,558 photos uploaded!

WunderBlogs® & News

Nearby

Air Quality

  Air Quality AQ Index Pollutant
Not available.

Snow Depth

Station Depth Elevation

Earthquake Activity

City Distance Mag. Time & Date
Minimum magnitude displayed is 2.5.

Coastal Water Temperatures

Place Temperature

Stations

Nearby Weather Stations

Station Location Temp. Windchill Dew Point Humidity Wind Precip. Elev Updated Type